Time;durP1;ratioP1;P1;durP2;ratioP2;P2;SDS_P1;SDS_P2;PMS_P1;PMS_P2;Temp;Humidity;BMP_temperature;BMP_pressure;BME280_temperature;BME280_humidity;BME280_pressure;Samples;Min_cycle;Max_cycle;Signal;HPM_P1;HPM_P2
2021/11/19 00:02:14;;;;;;;2.80;1.70;;;;;;;2.50;100.00;100300.38;5003828;28;20372;-69
2021/11/19 00:04:41;;;;;;;2.80;2.58;;;;;;;2.40;100.00;100299.16;5011886;28;20025;-69
2021/11/19 00:07:06;;;;;;;1.35;1.35;;;;;;;2.48;100.00;100310.56;5012068;28;20474;-69
2021/11/19 00:09:31;;;;;;;1.00;1.00;;;;;;;2.34;100.00;100308.28;5012010;28;20029;-69
2021/11/19 00:11:58;;;;;;;1.98;1.60;;;;;;;2.35;100.00;100299.78;5012004;28;20029;-69
2021/11/19 00:14:24;;;;;;;1.30;1.30;;;;;;;2.44;100.00;100305.25;5011923;28;20433;-69
2021/11/19 00:16:57;;;;;;;2.03;1.92;;;;;;;2.33;100.00;100306.53;5012016;28;20025;-69
2021/11/19 00:19:24;;;;;;;1.70;1.60;;;;;;;2.26;100.00;100298.59;5011851;28;20062;-69
2021/11/19 00:21:50;;;;;;;2.47;2.28;;;;;;;2.34;100.00;100293.81;5011836;28;20022;-69
2021/11/19 00:24:16;;;;;;;1.45;1.45;;;;;;;2.16;100.00;100296.50;5011987;28;20026;-69
2021/11/19 00:26:43;;;;;;;2.03;1.88;;;;;;;2.17;100.00;100295.66;5011957;28;20383;-69
2021/11/19 00:29:09;;;;;;;1.13;1.00;;;;;;;2.16;100.00;100293.94;5011614;28;20029;-69
2021/11/19 00:31:35;;;;;;;1.35;1.27;;;;;;;2.10;100.00;100288.59;5003921;28;20037;-69
2021/11/19 00:34:01;;;;;;;1.92;1.83;;;;;;;2.18;100.00;100286.34;5011414;28;20387;-69
2021/11/19 00:36:29;;;;;;;2.33;1.90;;;;;;;2.08;100.00;100285.09;5011892;28;20030;-69
2021/11/19 00:38:57;;;;;;;1.30;1.30;;;;;;;2.00;100.00;100291.59;5011671;28;20057;-69
2021/11/19 00:41:23;;;;;;;2.60;1.98;;;;;;;2.02;100.00;100280.59;5011837;28;20025;-69
2021/11/19 00:43:49;;;;;;;2.55;2.35;;;;;;;1.99;100.00;100275.38;5012148;28;20026;-69
2021/11/19 00:46:15;;;;;;;2.17;1.55;;;;;;;1.97;100.00;100271.00;5011655;28;20141;-69
2021/11/19 00:48:41;;;;;;;2.45;2.33;;;;;;;2.09;100.00;100266.41;5011801;28;20022;-69
2021/11/19 00:51:38;;;;;;;2.05;1.95;;;;;;;2.19;100.00;100276.16;5011478;28;20026;-69
2021/11/19 00:54:05;;;;;;;1.98;1.88;;;;;;;2.08;100.00;100274.88;4999467;28;20045;-69
2021/11/19 00:56:34;;;;;;;1.58;1.58;;;;;;;2.09;100.00;100268.94;5011562;28;20030;-69
2021/11/19 00:59:00;;;;;;;;;;;;;;;2.31;100.00;100270.66;5012109;28;20441;-69
2021/11/19 05:17:27;;;;;;;2.20;1.63;;;;;;;0.47;100.00;100325.69;5021495;23;20043;-68
2021/11/19 05:19:53;;;;;;;1.38;1.38;;;;;;;0.51;100.00;100322.50;4956897;28;20023;-68
2021/11/19 05:22:19;;;;;;;2.47;1.77;;;;;;;0.57;100.00;100325.31;4956572;28;20024;-68
2021/11/19 05:24:44;;;;;;;0.93;0.93;;;;;;;0.62;100.00;100325.53;4956680;28;20035;-68
2021/11/19 05:27:10;;;;;;;1.10;1.10;;;;;;;0.63;100.00;100323.06;4940345;28;20448;-68
2021/11/19 05:29:36;;;;;;;0.73;0.73;;;;;;;0.55;100.00;100324.38;4937752;29;20491;-75
2021/11/19 05:32:02;;;;;;;0.82;0.82;;;;;;;0.66;100.00;100320.66;4948120;29;20034;-76
2021/11/19 05:34:28;;;;;;;4.25;2.40;;;;;;;0.55;100.00;100319.28;4956473;28;20023;-76
2021/11/19 05:36:54;;;;;;;2.20;2.03;;;;;;;0.56;100.00;100318.47;4956169;28;20110;-76
2021/11/19 05:39:20;;;;;;;1.73;1.63;;;;;;;0.51;100.00;100317.38;4956373;28;20031;-76
2021/11/19 05:41:47;;;;;;;1.33;1.23;;;;;;;0.58;100.00;100321.09;4956281;28;20027;-76
2021/11/19 05:44:14;;;;;;;2.10;2.00;;;;;;;0.73;100.00;100309.94;4907374;28;20047;-75
2021/11/19 05:46:42;;;;;;;2.05;1.95;;;;;;;0.73;100.00;100314.19;4954010;28;20022;-76
2021/11/19 05:49:15;;;;;;;1.35;1.35;;;;;;;0.79;100.00;100308.47;4952355;28;20043;-75
2021/11/19 05:51:41;;;;;;;1.70;1.60;;;;;;;0.89;100.00;100305.53;4975470;28;20394;-74
2021/11/19 05:54:10;;;;;;;1.80;1.73;;;;;;;1.01;100.00;100306.06;4975336;28;20391;-74
2021/11/19 05:56:37;;;;;;;3.40;2.47;;;;;;;1.08;100.00;100307.22;4975168;28;20030;-75
2021/11/19 05:59:03;;;;;;;2.22;2.13;;;;;;;1.14;100.00;100302.41;4972269;28;20035;-74
2021/11/19 06:01:28;;;;;;;1.23;1.20;;;;;;;1.10;100.00;100311.59;4955894;28;20053;-74
2021/11/19 06:03:54;;;;;;;1.38;1.38;;;;;;;1.07;100.00;100311.47;4955876;28;20027;-74
2021/11/19 06:06:20;;;;;;;2.03;1.92;;;;;;;1.01;100.00;100316.28;4955773;28;20042;-74
2021/11/19 06:08:46;;;;;;;2.65;1.58;;;;;;;1.07;100.00;100316.56;4955949;28;20106;-74
2021/11/19 06:11:21;;;;;;;3.50;3.20;;;;;;;1.04;100.00;100321.53;4955770;28;20049;-74
2021/11/19 06:14:03;;;;;;;2.92;2.17;;;;;;;1.09;100.00;100321.75;4955723;28;20031;-75
2021/11/19 06:16:34;;;;;;;3.17;2.35;;;;;;;1.09;100.00;100325.16;4955419;28;20039;-74
2021/11/19 06:19:02;;;;;;;2.22;2.05;;;;;;;1.02;100.00;100334.22;4955435;28;20023;-75
2021/11/19 06:21:36;;;;;;;2.13;2.00;;;;;;;1.15;100.00;100339.88;4955750;28;20058;-69
2021/11/19 06:24:08;;;;;;;3.60;2.42;;;;;;;1.19;100.00;100332.41;4955503;29;20400;-69
2021/11/19 06:26:35;;;;;;;3.28;2.63;;;;;;;1.14;100.00;100339.00;4955430;28;20030;-69
2021/11/19 06:29:04;;;;;;;3.58;2.10;;;;;;;1.45;100.00;100340.34;4955082;28;20027;-69
2021/11/19 06:31:31;;;;;;;1.23;1.23;;;;;;;1.44;100.00;100338.59;4963523;28;20251;-69
2021/11/19 06:33:57;;;;;;;2.70;1.85;;;;;;;1.34;100.00;100342.44;4973720;28;20037;-69
2021/11/19 06:36:22;;;;;;;2.53;2.35;;;;;;;1.45;100.00;100337.78;4974522;28;20117;-69
2021/11/19 06:38:49;;;;;;;3.85;2.45;;;;;;;1.52;100.00;100338.13;4974450;28;20085;-69
2021/11/19 06:41:15;;;;;;;14.27;5.90;;;;;;;1.47;100.00;100341.31;4974284;28;20027;-69
2021/11/19 06:43:42;;;;;;;2.58;2.45;;;;;;;1.60;100.00;100346.13;4974752;28;20034;-69
2021/11/19 06:46:08;;;;;;;2.50;2.38;;;;;;;1.61;100.00;100345.31;4974411;28;20489;-69
2021/11/19 06:48:34;;;;;;;6.30;5.50;;;;;;;1.63;100.00;100346.25;4974342;28;20406;-69
2021/11/19 06:51:03;;;;;;;4.00;3.60;;;;;;;1.72;100.00;100361.97;4974202;28;20023;-69
2021/11/19 06:53:30;;;;;;;2.67;2.47;;;;;;;1.94;100.00;100352.69;4974253;28;20077;-69
2021/11/19 06:55:55;;;;;;;2.03;1.83;;;;;;;1.78;100.00;100357.13;4974202;28;20037;-69
2021/11/19 06:58:21;;;;;;;1.73;1.73;;;;;;;1.64;100.00;100363.31;4974016;28;20027;-69
2021/11/19 07:00:48;;;;;;;2.92;1.67;;;;;;;1.51;100.00;100368.72;4964950;28;20023;-69
2021/11/19 07:03:14;;;;;;;1.70;1.60;;;;;;;1.56;100.00;100369.78;4967647;28;20022;-77
2021/11/19 07:05:40;;;;;;;7.00;2.33;;;;;;;1.50;100.00;100369.53;4950244;28;20035;-77
2021/11/19 07:08:08;;;;;;;2.67;2.45;;;;;;;1.51;100.00;100366.16;4986288;28;20388;-77
2021/11/19 07:10:35;;;;;;;1.52;1.50;;;;;;;1.49;100.00;100367.75;4973963;28;20031;-68
2021/11/19 07:13:00;;;;;;;2.53;2.20;;;;;;;1.46;100.00;100365.09;4974131;28;20090;-68
2021/11/19 07:15:27;;;;;;;1.77;1.65;;;;;;;1.59;100.00;100369.91;4973720;28;20027;-68
2021/11/19 07:17:53;;;;;;;3.45;2.60;;;;;;;1.63;100.00;100366.69;4974059;28;20026;-68
2021/11/19 07:20:20;;;;;;;2.05;1.75;;;;;;;1.74;100.00;100368.03;4973557;28;20085;-68
2021/11/19 07:22:46;;;;;;;1.52;1.42;;;;;;;1.97;100.00;100370.69;4973874;28;20023;-68
2021/11/19 07:25:16;;;;;;;1.92;1.83;;;;;;;2.15;100.00;100368.03;4973677;28;20364;-75
2021/11/19 07:27:43;;;;;;;1.58;1.48;;;;;;;2.32;100.00;100374.69;4973869;28;20046;-77
2021/11/19 07:30:13;;;;;;;1.70;1.58;;;;;;;2.35;100.00;100377.38;4965961;28;20022;-77
2021/11/19 07:32:39;;;;;;;3.15;2.92;;;;;;;2.41;100.00;100379.31;4965496;28;20049;-77
2021/11/19 07:35:05;;;;;;;3.28;2.60;;;;;;;2.53;100.00;100377.25;4973527;28;20073;-78
2021/11/19 07:37:31;;;;;;;5.10;3.47;;;;;;;2.39;100.00;100380.94;4973492;28;20031;-77
2021/11/19 07:39:58;;;;;;;5.57;2.60;;;;;;;2.44;100.00;100387.13;4973707;28;20026;-77
2021/11/19 07:42:24;;;;;;;2.53;2.33;;;;;;;2.48;100.00;100381.31;4973299;28;20564;-77
2021/11/19 07:44:50;;;;;;;3.40;1.92;;;;;;;2.54;100.00;100389.22;4973686;28;20035;-77
2021/11/19 07:47:15;;;;;;;1.23;1.23;;;;;;;2.43;100.00;100395.59;4973418;28;20038;-77
2021/11/19 07:49:40;;;;;;;1.67;1.65;;;;;;;2.25;100.00;100401.69;4973367;28;20105;-77
2021/11/19 07:52:06;;;;;;;3.70;3.40;;;;;;;2.14;100.00;100397.84;4973318;28;20066;-77
2021/11/19 07:54:32;;;;;;;2.78;2.45;;;;;;;2.10;100.00;100390.84;4973242;28;20046;-77
2021/11/19 07:56:57;;;;;;;2.13;1.92;;;;;;;2.38;100.00;100394.56;4973059;28;20023;-78
2021/11/19 07:59:26;;;;;;;1.77;1.67;;;;;;;2.23;100.00;100388.00;4967454;28;20066;-77
2021/11/19 08:01:53;;;;;;;3.22;2.92;;;;;;;2.34;100.00;100390.13;4963489;28;20024;-77
2021/11/19 08:04:20;;;;;;;3.08;2.65;;;;;;;2.40;100.00;100390.34;4973216;28;20027;-77
2021/11/19 08:06:46;;;;;;;2.47;2.20;;;;;;;2.36;100.00;100393.59;4973021;28;20496;-77
2021/11/19 08:09:12;;;;;;;2.05;1.95;;;;;;;2.58;100.00;100393.66;4972901;28;20027;-77
2021/11/19 08:11:38;;;;;;;5.18;2.42;;;;;;;2.69;100.00;100388.97;4973179;28;20491;-78
2021/11/19 08:14:05;;;;;;;4.35;3.88;;;;;;;2.55;100.00;100396.09;4973006;28;20037;-77
2021/11/19 08:16:49;;;;;;;3.47;3.17;;;;;;;2.70;100.00;100396.69;4959389;28;20027;-77
2021/11/19 08:19:27;;;;;;;1.67;1.58;;;;;;;2.86;100.00;100392.19;4970466;28;20357;-77
2021/11/19 08:21:55;;;;;;;3.22;3.00;;;;;;;3.01;100.00;100398.78;4977072;28;20027;-78
2021/11/19 08:24:21;;;;;;;4.25;3.70;;;;;;;2.95;100.00;100405.31;4977034;28;20027;-77
2021/11/19 08:26:51;;;;;;;4.40;3.63;;;;;;;2.97;100.00;100391.78;4976929;28;20109;-77
2021/11/19 08:29:24;;;;;;;2.50;2.30;;;;;;;3.23;100.00;100399.56;4972043;28;20113;-77
2021/11/19 08:31:51;;;;;;;1.42;1.42;;;;;;;3.45;99.70;100396.13;4966949;28;20233;-77
2021/11/19 08:34:17;;;;;;;2.03;1.92;;;;;;;3.33;98.80;100404.22;4976760;28;20544;-78
2021/11/19 08:36:43;;;;;;;2.92;2.65;;;;;;;3.44;99.42;100389.28;4965061;28;20094;-77
2021/11/19 08:39:11;;;;;;;2.53;2.42;;;;;;;3.51;98.45;100396.34;4969222;28;20026;-77
2021/11/19 08:41:37;;;;;;;3.22;3.03;;;;;;;3.51;98.82;100389.53;4976688;28;20022;-79
2021/11/19 08:44:05;;;;;;;3.22;2.92;;;;;;;3.84;98.63;100389.88;4976695;28;20438;-79
2021/11/19 08:46:34;;;;;;;1.48;1.40;;;;;;;3.95;96.88;100385.09;4976491;28;20058;-78
2021/11/19 08:49:04;;;;;;;2.73;1.93;;;;;;;3.76;96.26;100393.84;4976648;28;20113;-78
2021/11/19 08:51:31;;;;;;;2.97;2.78;;;;;;;3.80;97.13;100395.69;4976637;28;20120;-78
2021/11/19 08:54:01;;;;;;;2.00;1.90;;;;;;;3.90;97.16;100390.91;4976398;28;20077;-79
2021/11/19 08:56:29;;;;;;;3.33;3.13;;;;;;;4.29;95.36;100384.53;4976386;28;20117;-79
2021/11/19 08:58:54;;;;;;;3.05;2.85;;;;;;;4.46;95.19;100379.09;4974413;28;20590;-79
2021/11/19 09:01:21;;;;;;;5.13;2.60;;;;;;;4.48;94.76;100383.44;4964801;28;20051;-79
2021/11/19 09:03:47;;;;;;;2.33;2.20;;;;;;;4.71;92.95;100391.91;4974024;28;20027;-79
2021/11/19 09:06:15;;;;;;;3.03;2.75;;;;;;;4.82;92.24;100390.53;4974335;28;20031;-78
2021/11/19 09:08:42;;;;;;;2.92;2.72;;;;;;;4.93;91.97;100392.53;4968077;28;20035;-79
2021/11/19 09:11:11;;;;;;;2.85;2.60;;;;;;;4.67;92.35;100402.88;4976020;28;20027;-79
2021/11/19 09:13:37;;;;;;;1.92;1.83;;;;;;;4.88;92.41;100401.00;4976008;28;20427;-79
2021/11/19 09:16:06;;;;;;;7.55;2.55;;;;;;;4.61;93.21;100395.88;4975804;28;20031;-79
2021/11/19 09:18:36;;;;;;;7.05;2.75;;;;;;;4.62;93.57;100401.88;4976249;28;20399;-79
2021/11/19 09:21:44;;;;;;;2.47;2.28;;;;;;;4.93;92.93;100397.69;4975790;28;20494;-79
2021/11/19 09:24:19;;;;;;;6.43;3.78;;;;;;;4.90;93.28;100394.22;4954221;29;20043;-78
2021/11/19 09:26:48;;;;;;;2.45;2.33;;;;;;;5.01;93.37;100389.41;4973753;28;20436;-78
2021/11/19 09:29:21;;;;;;;2.78;2.53;;;;;;;4.97;92.25;100394.38;4970868;28;20373;-78
2021/11/19 09:31:48;;;;;;;1.88;1.77;;;;;;;5.18;90.97;100394.19;4965333;28;20031;-81
2021/11/19 09:34:15;;;;;;;2.33;2.15;;;;;;;5.21;91.79;100384.84;4975565;28;20037;-78
2021/11/19 09:36:41;;;;;;;2.22;1.98;;;;;;;5.04;92.08;100381.78;4972959;28;20042;-78
2021/11/19 09:39:09;;;;;;;2.67;2.28;;;;;;;4.79;93.01;100380.19;4967972;28;20286;-78
2021/11/19 09:41:45;;;;;;;1.83;1.67;;;;;;;4.82;93.91;100380.25;4975391;28;20464;-78
2021/11/19 09:44:22;;;;;;;3.05;2.70;;;;;;;4.92;93.47;100381.41;4941526;28;20388;-78
2021/11/19 09:47:02;;;;;;;3.72;3.10;;;;;;;5.12;92.95;100379.44;4975349;28;20030;-78
2021/11/19 09:49:40;;;;;;;7.32;2.88;;;;;;;5.06;92.25;100376.69;4974108;28;20041;-78
2021/11/19 09:52:43;;;;;;;4.25;2.67;;;;;;;5.14;92.33;100373.53;4878809;28;20042;-78
2021/11/19 09:55:24;;;;;;;3.63;3.33;;;;;;;5.27;92.55;100369.63;4975207;28;20019;-78
2021/11/19 09:58:02;;;;;;;3.70;2.70;;;;;;;5.37;92.09;100363.94;4975472;28;20023;-78
2021/11/19 10:00:39;;;;;;;2.65;2.15;;;;;;;5.61;91.63;100361.16;4967491;28;20054;-78
2021/11/19 10:03:41;;;;;;;3.25;2.95;;;;;;;6.12;90.36;100359.94;4959674;28;20139;-79
2021/11/19 10:06:14;;;;;;;3.88;3.30;;;;;;;6.38;87.79;100361.50;4973199;28;20050;-78
2021/11/19 10:08:45;;;;;;;5.03;2.83;;;;;;;6.49;87.85;100350.56;4966935;28;20026;-78
2021/11/19 10:11:29;;;;;;;5.65;3.45;;;;;;;6.55;87.02;100353.28;4975109;28;20030;-78
2021/11/19 10:14:26;;;;;;;3.63;1.88;;;;;;;6.61;86.12;100367.16;4974998;28;20058;-76
2021/11/19 10:17:10;;;;;;;2.58;1.95;;;;;;;6.70;86.03;100363.94;4974798;28;20035;-76
2021/11/19 10:19:40;;;;;;;2.90;2.70;;;;;;;6.53;85.59;100357.53;4974821;28;20042;-76
2021/11/19 10:22:33;;;;;;;6.97;2.47;;;;;;;6.74;86.17;100357.16;4974798;28;20114;-76
2021/11/19 10:25:04;;;;;;;2.13;1.95;;;;;;;6.90;85.19;100357.53;4974750;28;20484;-76
2021/11/19 10:27:34;;;;;;;1.95;1.63;;;;;;;7.01;85.37;100349.16;4974634;28;20031;-76
2021/11/19 10:30:07;;;;;;;3.42;2.88;;;;;;;7.07;85.40;100357.91;4966962;28;20517;-76
2021/11/19 10:32:34;;;;;;;1.63;1.52;;;;;;;6.77;83.79;100359.78;4966553;28;20031;-76
2021/11/19 10:35:37;;;;;;;2.83;2.33;;;;;;;6.75;85.25;100353.75;4974575;28;20070;-76
2021/11/19 10:38:36;;;;;;;3.45;3.15;;;;;;;6.88;84.56;100351.47;4966337;28;20357;-76
2021/11/19 10:41:25;;;;;;;1.73;1.43;;;;;;;6.97;84.11;100345.66;4980348;28;20049;-76
2021/11/19 10:44:05;;;;;;;3.47;3.17;;;;;;;6.79;83.77;100346.13;4993890;28;20033;-76
2021/11/19 10:46:50;;;;;;;2.40;2.20;;;;;;;6.86;84.04;100335.09;4993837;28;20039;-76
2021/11/19 10:49:15;;;;;;;2.15;1.98;;;;;;;6.87;84.54;100329.13;4993513;28;20030;-76
2021/11/19 10:51:48;;;;;;;2.08;1.73;;;;;;;6.82;83.86;100335.91;4993564;28;20582;-76
2021/11/19 10:54:20;;;;;;;4.13;3.05;;;;;;;7.05;85.65;100333.78;4993596;28;20026;-77
2021/11/19 10:57:08;;;;;;;3.55;3.35;;;;;;;7.13;83.12;100328.81;4993530;28;20029;-77
2021/11/19 11:00:09;;;;;;;2.38;2.25;;;;;;;7.06;85.45;100334.66;4986225;28;20507;-76
2021/11/19 11:02:47;;;;;;;1.88;1.75;;;;;;;7.42;82.17;100317.38;4973052;28;20054;-76
2021/11/19 11:05:27;;;;;;;3.00;1.80;;;;;;;7.27;82.07;100329.97;4974012;28;20022;-76
2021/11/19 11:08:12;;;;;;;3.70;3.38;;;;;;;7.15;84.50;100329.69;4982416;28;20365;-76
2021/11/19 11:10:46;;;;;;;4.10;2.78;;;;;;;6.87;84.03;100313.69;4993231;28;20436;-76
2021/11/19 11:13:28;;;;;;;7.57;3.15;;;;;;;6.88;85.51;100320.56;4993509;28;20026;-76
2021/11/19 11:16:02;;;;;;;8.13;2.33;;;;;;;6.65;84.02;100311.47;4993189;28;20026;-76
2021/11/19 11:18:35;;;;;;;3.17;2.40;;;;;;;6.50;84.83;100311.09;4993784;28;20036;-76
2021/11/19 11:21:27;;;;;;;5.35;1.90;;;;;;;6.57;85.57;100311.25;4992905;28;20030;-76
2021/11/19 11:24:24;;;;;;;4.45;3.15;;;;;;;6.55;85.54;100314.66;4992442;28;20077;-76
2021/11/19 11:26:55;;;;;;;2.42;2.33;;;;;;;6.61;84.91;100307.94;4994110;28;20414;-76
2021/11/19 11:29:29;;;;;;;2.42;2.22;;;;;;;6.69;85.73;100308.13;4988431;28;20027;-73
2021/11/19 11:32:07;;;;;;;2.90;2.47;;;;;;;7.15;83.02;100301.34;4983692;28;20038;-73
2021/11/19 11:34:54;;;;;;;3.03;2.83;;;;;;;7.00;82.44;100293.31;4993103;28;20068;-73
2021/11/19 11:37:33;;;;;;;4.03;2.70;;;;;;;7.02;82.54;100296.81;4985238;28;20026;-73
2021/11/19 11:40:04;;;;;;;3.60;1.77;;;;;;;7.21;81.88;100296.34;4991986;28;20026;-74
2021/11/19 11:42:37;;;;;;;2.60;2.38;;;;;;;7.42;81.77;100298.47;4993081;28;20022;-72
2021/11/19 11:45:43;;;;;;;2.65;2.10;;;;;;;7.43;81.62;100295.03;4993010;28;20422;-73
2021/11/19 11:48:30;;;;;;;2.60;2.03;;;;;;;7.51;80.68;100292.63;4988839;28;20065;-76
2021/11/19 11:51:07;;;;;;;2.80;2.60;;;;;;;7.43;81.13;100290.75;4992286;28;20101;-76
2021/11/19 11:53:46;;;;;;;8.00;3.08;;;;;;;7.67;81.38;100292.03;4992730;28;20125;-77
2021/11/19 11:56:40;;;;;;;4.80;2.15;;;;;;;7.78;79.52;100292.22;4992483;28;20034;-77
2021/11/19 11:59:29;;;;;;;1.23;1.23;;;;;;;7.66;80.09;100293.75;4989187;28;20035;-76
2021/11/19 12:02:03;;;;;;;3.60;2.55;;;;;;;7.43;79.83;100295.03;4983391;28;20046;-77
2021/11/19 12:04:54;;;;;;;3.38;2.88;;;;;;;7.51;80.25;100288.31;4992486;28;20026;-78
2021/11/19 12:08:07;;;;;;;2.03;1.77;;;;;;;7.69;79.58;100283.50;4984952;28;20033;-78
2021/11/19 12:10:50;;;;;;;8.55;3.15;;;;;;;7.62;79.59;100291.09;4956626;28;20058;-78
2021/11/19 12:13:21;;;;;;;2.55;2.35;;;;;;;7.88;78.44;100279.53;4953965;28;20023;-78
2021/11/19 12:16:24;;;;;;;4.15;2.72;;;;;;;8.04;78.62;100284.94;4953656;28;20031;-77
2021/11/19 12:19:11;;;;;;;3.47;3.17;;;;;;;7.93;78.25;100283.06;4953191;29;20046;-77
2021/11/19 12:21:50;;;;;;;6.32;4.22;;;;;;;7.42;79.09;100283.00;4953637;29;20469;-78
2021/11/19 12:24:32;;;;;;;3.20;2.87;;;;;;;7.34;82.29;100280.25;4953959;29;20118;-77
2021/11/19 12:27:28;;;;;;;4.65;3.30;;;;;;;7.67;80.42;100280.00;4953644;28;20027;-77
2021/11/19 12:29:59;;;;;;;6.35;2.53;;;;;;;7.77;79.04;100275.88;4965430;28;20027;-78
2021/11/19 12:32:32;;;;;;;3.80;2.78;;;;;;;7.59;80.82;100280.72;4984306;28;20113;-78
2021/11/19 12:35:14;;;;;;;4.38;2.47;;;;;;;7.38;80.49;100274.31;4992489;28;20034;-78
2021/11/19 12:38:04;;;;;;;5.05;2.67;;;;;;;7.30;81.58;100275.00;4982222;28;20027;-78
2021/11/19 12:40:50;;;;;;;2.15;1.95;;;;;;;7.13;82.54;100270.41;4992172;28;20428;-78
2021/11/19 12:43:47;;;;;;;2.33;2.22;;;;;;;7.48;81.74;100258.19;4992222;28;20077;-78
2021/11/19 12:46:50;;;;;;;3.67;3.28;;;;;;;7.20;81.82;100255.91;4992093;28;20018;-78
2021/11/19 12:49:37;;;;;;;2.88;2.30;;;;;;;6.98;83.25;100254.63;4991939;28;20487;-78
2021/11/19 12:52:08;;;;;;;5.43;3.50;;;;;;;7.04;83.53;100247.03;4992160;28;20026;-78
2021/11/19 12:54:39;;;;;;;4.63;3.63;;;;;;;6.97;82.72;100258.06;4992047;28;20026;-78
2021/11/19 12:57:27;;;;;;;2.35;1.98;;;;;;;6.98;83.12;100248.63;4992066;28;20026;-78
2021/11/19 13:00:04;;;;;;;3.55;3.17;;;;;;;6.72;84.55;100254.09;4984150;28;20030;-78
2021/11/19 13:02:33;;;;;;;12.73;2.72;;;;;;;6.61;84.97;100250.41;4984460;28;20026;-78
2021/11/19 13:05:25;;;;;;;5.30;2.85;;;;;;;6.34;85.55;100259.28;4995542;28;20484;-78
2021/11/19 13:08:40;;;;;;;2.22;2.03;;;;;;;6.31;86.60;100259.19;4984069;28;20069;-78
2021/11/19 13:11:30;;;;;;;2.33;2.13;;;;;;;6.15;86.24;100262.25;5002743;28;20124;-78
2021/11/19 13:14:14;;;;;;;2.67;2.47;;;;;;;6.03;87.16;100262.81;4995426;28;20049;-78
2021/11/19 13:16:42;;;;;;;4.75;2.00;;;;;;;6.04;87.95;100263.69;4995300;28;20434;-77
2021/11/19 13:19:29;;;;;;;2.95;2.60;;;;;;;5.93;87.82;100261.72;4995104;28;20018;-78
2021/11/19 13:22:10;;;;;;;2.40;2.22;;;;;;;5.84;88.59;100260.59;4995590;28;20033;-78
2021/11/19 13:24:47;;;;;;;4.85;3.13;;;;;;;6.02;89.45;100255.06;4995318;28;20076;-78
2021/11/19 13:27:13;;;;;;;1.90;1.80;;;;;;;6.07;89.24;100254.34;4995107;28;20510;-78
2021/11/19 13:29:49;;;;;;;3.88;2.35;;;;;;;6.22;88.89;100243.53;4987321;28;20138;-78
2021/11/19 13:32:24;;;;;;;2.40;2.20;;;;;;;6.21;87.59;100230.66;4986947;28;20483;-78
2021/11/19 13:35:36;;;;;;;3.30;3.00;;;;;;;5.92;88.41;100231.69;4995062;28;20074;-78
2021/11/19 13:38:02;;;;;;;4.40;2.83;;;;;;;6.02;89.81;100235.34;4986443;28;20117;-78
2021/11/19 13:40:27;;;;;;;7.05;3.97;;;;;;;5.88;89.45;100237.56;4994529;28;20588;-78
2021/11/19 13:43:15;;;;;;;14.15;4.82;;;;;;;5.83;90.21;100234.00;4995010;28;20033;-78
2021/11/19 13:45:54;;;;;;;6.93;2.40;;;;;;;5.83;90.21;100222.84;4994649;28;20022;-78
2021/11/19 13:48:37;;;;;;;5.10;3.58;;;;;;;5.82;89.85;100227.13;4994826;28;20050;-78
2021/11/19 13:51:23;;;;;;;3.85;2.90;;;;;;;5.76;90.43;100221.84;4994709;28;20022;-78
2021/11/19 13:54:04;;;;;;;2.78;2.58;;;;;;;5.72;90.90;100235.44;4995024;28;20062;-78
2021/11/19 13:56:36;;;;;;;3.33;2.90;;;;;;;5.70;90.86;100231.94;4994619;28;20061;-78
2021/11/19 13:59:31;;;;;;;3.78;3.15;;;;;;;5.79;90.02;100227.03;4991559;28;20027;-78
2021/11/19 14:02:07;;;;;;;3.05;2.72;;;;;;;5.67;90.92;100231.91;4968013;28;20046;-75
2021/11/19 14:04:49;;;;;;;4.88;3.40;;;;;;;5.66;91.36;100227.59;4993322;28;20036;-74
2021/11/19 14:07:17;;;;;;;2.35;2.25;;;;;;;5.65;91.44;100224.13;4987300;28;20023;-74
2021/11/19 14:10:11;;;;;;;5.68;3.00;;;;;;;5.81;92.39;100229.66;4991812;28;20447;-74
2021/11/19 14:12:51;;;;;;;4.22;2.95;;;;;;;5.92;91.55;100234.25;4994348;28;20030;-75
2021/11/19 14:15:26;;;;;;;4.43;2.65;;;;;;;6.19;90.14;100228.03;4994019;28;20037;-74
2021/11/19 14:18:05;;;;;;;6.13;3.22;;;;;;;6.23;90.15;100231.53;4994100;28;20033;-74
2021/11/19 14:23:36;;;;;;;3.70;2.33;;;;;;;6.02;89.10;100229.34;4994138;28;20116;-68
2021/11/19 14:26:14;;;;;;;2.50;2.30;;;;;;;6.15;90.08;100223.66;4993992;28;20046;-68
2021/11/19 14:28:45;;;;;;;8.80;3.30;;;;;;;5.86;90.51;100228.94;4994173;28;20070;-68
2021/11/19 14:31:12;;;;;;;8.35;2.63;;;;;;;6.09;89.65;100220.91;4975542;28;20018;-68
2021/11/19 14:34:10;;;;;;;4.55;3.28;;;;;;;5.98;90.20;100228.38;4990419;28;20026;-68
2021/11/19 14:36:39;;;;;;;2.40;2.20;;;;;;;5.91;89.95;100222.25;4991850;28;20022;-68
2021/11/19 14:39:10;;;;;;;12.55;3.30;;;;;;;6.14;90.51;100217.66;4985996;28;20029;-68
2021/11/19 14:42:08;;;;;;;2.38;1.98;;;;;;;6.16;90.85;100213.38;4993922;28;20395;-68
2021/11/19 14:44:41;;;;;;;1.40;1.35;;;;;;;5.93;90.93;100228.28;4997277;28;20038;-69
2021/11/19 14:47:38;;;;;;;3.45;2.00;;;;;;;5.89;90.74;100223.84;4993616;28;20034;-70
2021/11/19 14:51:02;;;;;;;3.63;3.00;;;;;;;5.80;90.83;100226.22;4993000;28;20507;-70
2021/11/19 14:53:04;;;;;;;2.47;2.10;;;;;;;5.79;91.33;100226.16;4993393;28;20034;-70
2021/11/19 14:55:29;;;;;;;3.47;3.15;;;;;;;5.75;91.66;100226.94;4993526;28;20026;-70
2021/11/19 14:58:13;;;;;;;15.93;4.03;;;;;;;5.76;91.86;100221.84;4993534;28;20511;-70
2021/11/19 15:00:50;;;;;;;2.42;2.10;;;;;;;5.63;91.52;100220.66;4985490;28;20480;-70
2021/11/19 15:03:18;;;;;;;2.97;2.47;;;;;;;5.73;92.05;100211.47;4985650;28;20033;-70
2021/11/19 15:05:56;;;;;;;4.03;2.22;;;;;;;5.78;91.74;100209.88;4991313;28;20065;-70
2021/11/19 15:08:31;;;;;;;2.30;2.22;;;;;;;5.57;92.18;100204.22;4985210;28;20019;-78
2021/11/19 15:11:05;;;;;;;3.58;3.28;;;;;;;5.65;92.26;100202.69;4993190;28;20021;-78
2021/11/19 15:13:38;;;;;;;5.70;3.92;;;;;;;5.79;91.40;100198.75;4993411;28;20041;-78
2021/11/19 15:16:28;;;;;;;4.32;2.90;;;;;;;5.68;91.47;100190.78;4993123;28;20523;-69
2021/11/19 15:18:54;;;;;;;2.80;2.60;;;;;;;5.58;92.25;100185.38;4993173;28;20034;-74
2021/11/19 15:21:20;;;;;;;2.78;2.55;;;;;;;5.60;92.48;100184.56;4993146;28;20574;-75
2021/11/19 15:23:55;;;;;;;2.95;2.72;;;;;;;5.69;93.19;100196.78;4993360;28;20435;-75
2021/11/19 15:26:27;;;;;;;7.60;3.55;;;;;;;5.67;92.63;100199.34;4992427;28;20057;-75
2021/11/19 15:29:14;;;;;;;4.50;3.28;;;;;;;5.67;92.17;100190.75;4991569;28;20042;-75
2021/11/19 15:31:56;;;;;;;3.90;3.58;;;;;;;5.71;92.31;100202.84;4981802;28;20073;-75
2021/11/19 15:34:30;;;;;;;10.52;4.10;;;;;;;5.72;92.33;100198.59;4993088;28;20426;-76
2021/11/19 15:37:32;;;;;;;4.50;3.70;;;;;;;5.63;92.85;100196.66;4988173;28;20495;-76
2021/11/19 15:40:06;;;;;;;4.00;2.58;;;;;;;5.58;92.78;100193.09;4955014;28;20066;-77
2021/11/19 15:42:32;;;;;;;2.42;2.33;;;;;;;5.59;93.19;100192.25;4954376;28;20062;-77
2021/11/19 15:44:57;;;;;;;4.95;3.78;;;;;;;5.62;93.69;100193.22;4954103;28;20413;-76
2021/11/19 15:47:23;;;;;;;1.98;1.77;;;;;;;5.60;92.78;100191.41;4953896;28;20027;-77
2021/11/19 15:49:54;;;;;;;4.97;4.50;;;;;;;5.58;93.15;100195.66;4954017;28;20023;-77
2021/11/19 15:52:25;;;;;;;3.55;2.22;;;;;;;5.54;93.25;100196.41;4954320;28;20035;-76
2021/11/19 15:55:01;;;;;;;5.22;3.97;;;;;;;5.56;93.47;100202.44;4954264;28;20057;-77
2021/11/19 15:57:35;;;;;;;3.15;2.45;;;;;;;5.60;93.57;100212.00;4953800;28;20481;-76
2021/11/19 16:00:25;;;;;;;11.20;2.58;;;;;;;5.61;93.19;100200.91;4959801;28;20160;-76
2021/11/19 16:03:42;;;;;;;5.43;3.20;;;;;;;5.58;94.51;100208.53;4984581;28;20030;-77
2021/11/19 16:06:38;;;;;;;6.93;2.85;;;;;;;5.58;94.57;100205.94;4999720;28;20030;-77
2021/11/19 16:09:11;;;;;;;4.88;4.15;;;;;;;5.66;94.52;100199.31;4984486;28;20033;-77
2021/11/19 16:11:54;;;;;;;2.08;1.98;;;;;;;5.70;94.22;100195.94;4992572;28;20069;-69
2021/11/19 16:14:27;;;;;;;4.13;2.30;;;;;;;5.72;93.57;100199.44;4992495;28;20045;-70
2021/11/19 16:17:00;;;;;;;1.25;1.25;;;;;;;5.71;93.49;100192.56;4992388;28;20373;-70
2021/11/19 16:19:26;;;;;;;4.55;4.15;;;;;;;5.68;93.65;100193.34;4992365;28;20050;-70
2021/11/19 16:21:58;;;;;;;3.53;2.05;;;;;;;5.71;94.13;100194.28;4992461;28;20464;-70
2021/11/19 16:24:27;;;;;;;3.38;2.67;;;;;;;5.73;94.08;100201.19;4992461;28;20027;-70
2021/11/19 16:27:18;;;;;;;3.38;3.08;;;;;;;5.70;94.29;100189.94;4992250;28;20109;-70